Long Hua — VRFR5 — position and weather

sailwx.info

Track history (hours):
 
Tides and Currents Weather Stations Pressure Air Temp Water Temp Dewpoint Dewpoint Depression Visibility Wind Speed Wind Dir Waves Ship Positions

Long Hua

Last reported at 2015-Jul-30 06:14 UTC. Time now 2015-Jul-30 20:18 UTC.
Position N 01°15' E 104°03'.

Length 180 m; draft 6.2 m.

MMSI: 477622800.

Date/timePositionNaut miles runAvg speedWind from/ knotsBaromVisibWave heightAir tempDewpointWater temp
2015-Jul-30 06:14N 01°15' E 104°03'6 8.3
2015-Jul-30 05:33N 01°15' E 103°57'3 0.4
2015-Jul-29 20:24N 01°16' E 103°54'1 1.7
2015-Jul-29 19:33N 01°14' E 103°54'2 2.0
2015-Jul-29 18:26N 01°12' E 103°53'15010.1
2015-Jul-29 03:33N 02°23' E 101°40'4711.8
2015-Jul-28 23:33N 02°48' E 101°00'2311.5
2015-Jul-28 21:33N 03°03' E 100°43'8912.6
2015-Jul-28 14:28N 04°03' E 099°37'2412.7
2015-Jul-28 12:33N 04°19' E 099°18'  
Track history (hours):
 
Tides and Currents Weather Stations Pressure Air Temp Water Temp Dewpoint Dewpoint Depression Visibility Wind Speed Wind Dir Waves Ship Positions

Long Hua

Last reported at 2015-Jul-30 06:14 UTC. Time now 2015-Jul-30 20:18 UTC.
Position N 01°15' E 104°03'.

Length 180 m; draft 6.2 m.

MMSI: 477622800.

Date/timePositionNaut miles runAvg speedWind from/ knotsBaromVisibWave heightAir tempDewpointWater temp
2015-Jul-30 06:14N 01°15' E 104°03'6 8.3
2015-Jul-30 05:33N 01°15' E 103°57'3 0.4
2015-Jul-29 20:24N 01°16' E 103°54'1 1.7
2015-Jul-29 19:33N 01°14' E 103°54'2 2.0
2015-Jul-29 18:26N 01°12' E 103°53'15010.1
2015-Jul-29 03:33N 02°23' E 101°40'4711.8
2015-Jul-28 23:33N 02°48' E 101°00'2311.5
2015-Jul-28 21:33N 03°03' E 100°43'8912.6
2015-Jul-28 14:28N 04°03' E 099°37'2412.7
2015-Jul-28 12:33N 04°19' E 099°18'  

Dump ship's entire track history